Stovring, Denmark
Current Conditions -  °F | °C
As of 4:50 PM on Friday 24 Oct 2014 (Local Time) from EKYT Reporting Station
Light Rain Light Rain  
Wind Chill: 55°   Ceiling: 1000
Heat Index: 55°   Visibility: 3mi
Dew Point: 54°   Wind: 17mph
Humidity: 94%   Direction: 180°S
Pressure: 29.91"   Gusts: NA
Location:  56.89°N, 9.84°E
Report Text: EKYT 241450Z 18015KT 5000 -DZRA SCT007 BKN010 13/12 Q1013
Loading
Personal Weather Stations






























Interactive Weather Map
Tropical Storm Tracking
New forecast layout! Learn more

10-Day Weather Forecast

Advertisements
Track Severe Weather on mobile